Etusivu
METAR-TAF:

METAR-TAF

Lentoasemat :

Nantesin kansainvälinen lentoasema

Nantes, Ranska

Leveyspiiri: 47-10N, Pituuspiiri: 001-36W, korkeus merenpinnasta: 27 m

Tämänhetkinen sää

Tämä raportti tehtiin 39 minuuttia sitten, kello 12.30 UTC
Tuuli 6 kn pohjoisesta, vaihdellen lännen/luoteen ja idän/koillisen välillä
Lämpötila 21°C
Kosteus 53%
Ilmanpaine 1020 hPa
Näkyvyys 10 km tai enemmän
Muutamia pilviä 4300 ft:n korkeudessa
Hajonneita pilviä 16000 ft:n korkeudessa

METAR: LFRS 101230Z AUTO 01006KT 300V070 9999 FEW043 BKN160 21/11 Q1020 NOSIG

Aika: 15:09 (13:09 UTC)

Sääennuste

Tämä raportti tehtiin 2 tuntia ja 9 minuuttia sitten, kello 11.00 UTC
Ennuste voimassa 10. päivästä klo 12 UTC - 11. päivään klo 18 UTC
Tuuli 8 kn pohjoisen/luoteesta
Näkyvyys 10 km tai enemmän
Hajanaisia pilviä 3000 ft:n korkeudessa
Tulossa
11. päivästä klo 09 UTC - 11. päivään klo 11 UTC
Tuuli 10 kn koillisesta

TAF: LFRS 101100Z 1012/1118 34008KT 9999 SCT030 BECMG 1109/1111 05010KT

Säähavainnot ja -ennusteet yli 4000 lentoasemalta (METAR- ja TAF-raportit).

Käytössä olevat sääasemat on merkitty karttaan keltaisilla ja punaisilla pisteillä.

Aseta hiiri pisteen päälle nähdäksesi sääaseman nimen.

Klikkaa sitten nähdäksesi säähavainnot ja -ennusteet.

Kartan vaihtaminen: klikkaa mustalla rastilla varustettuja vihreitä pisteitä, niin voit zoomata sisään; viivalla varustettua vihreää pistettä, niin voit zoomata ulos tai vihreitä nuolia, niin pääset viereisille kartoille.


METAR-TAF: